sensor_id;sensor_type;location;lat;lon;timestamp;P1;durP1;ratioP1;P2;durP2;ratioP2
35074;SDS011;21260;34.984;32.490;2023-05-07T00:01:10;10.20;;;3.70;;
35074;SDS011;21260;34.984;32.490;2023-05-07T00:03:37;12.23;;;3.90;;
35074;SDS011;21260;34.984;32.490;2023-05-07T00:06:03;12.93;;;4.00;;
35074;SDS011;21260;34.984;32.490;2023-05-07T00:08:29;13.90;;;3.92;;
35074;SDS011;21260;34.984;32.490;2023-05-07T00:10:55;9.95;;;3.63;;
35074;SDS011;21260;34.984;32.490;2023-05-07T00:13:22;12.37;;;3.30;;
35074;SDS011;21260;34.984;32.490;2023-05-07T00:15:48;10.82;;;3.45;;
35074;SDS011;21260;34.984;32.490;2023-05-07T00:18:14;9.57;;;3.22;;
35074;SDS011;21260;34.984;32.490;2023-05-07T00:20:41;12.33;;;3.80;;
35074;SDS011;21260;34.984;32.490;2023-05-07T00:23:07;11.07;;;3.80;;
35074;SDS011;21260;34.984;32.490;2023-05-07T00:25:33;10.18;;;3.28;;
35074;SDS011;21260;34.984;32.490;2023-05-07T00:28:00;12.05;;;3.60;;
35074;SDS011;21260;34.984;32.490;2023-05-07T00:30:28;10.43;;;3.60;;
35074;SDS011;21260;34.984;32.490;2023-05-07T00:32:55;12.95;;;3.60;;
35074;SDS011;21260;34.984;32.490;2023-05-07T00:35:21;10.35;;;3.28;;
35074;SDS011;21260;34.984;32.490;2023-05-07T00:37:47;10.23;;;3.85;;
35074;SDS011;21260;34.984;32.490;2023-05-07T00:40:14;8.65;;;3.13;;
35074;SDS011;21260;34.984;32.490;2023-05-07T00:42:40;11.23;;;3.55;;
35074;SDS011;21260;34.984;32.490;2023-05-07T00:45:06;12.98;;;3.80;;
35074;SDS011;21260;34.984;32.490;2023-05-07T00:47:33;11.82;;;3.60;;
35074;SDS011;21260;34.984;32.490;2023-05-07T00:49:59;11.80;;;3.42;;
35074;SDS011;21260;34.984;32.490;2023-05-07T00:52:26;9.85;;;3.55;;
35074;SDS011;21260;34.984;32.490;2023-05-07T00:54:53;9.27;;;3.53;;
35074;SDS011;21260;34.984;32.490;2023-05-07T00:57:20;9.47;;;3.33;;
35074;SDS011;21260;34.984;32.490;2023-05-07T00:59:47;7.57;;;3.10;;
35074;SDS011;21260;34.984;32.490;2023-05-07T01:02:16;8.98;;;3.40;;
35074;SDS011;21260;34.984;32.490;2023-05-07T01:04:42;9.63;;;3.17;;
35074;SDS011;21260;34.984;32.490;2023-05-07T01:07:08;10.38;;;3.40;;
35074;SDS011;21260;34.984;32.490;2023-05-07T01:09:35;7.80;;;2.97;;
35074;SDS011;21260;34.984;32.490;2023-05-07T01:12:02;11.18;;;3.28;;
35074;SDS011;21260;34.984;32.490;2023-05-07T01:14:30;9.38;;;3.30;;
35074;SDS011;21260;34.984;32.490;2023-05-07T01:16:58;11.77;;;3.37;;
35074;SDS011;21260;34.984;32.490;2023-05-07T01:19:25;13.60;;;3.45;;
35074;SDS011;21260;34.984;32.490;2023-05-07T01:21:53;12.68;;;3.80;;
35074;SDS011;21260;34.984;32.490;2023-05-07T01:24:33;11.02;;;3.65;;
35074;SDS011;21260;34.984;32.490;2023-05-07T01:27:02;10.97;;;3.33;;
35074;SDS011;21260;34.984;32.490;2023-05-07T01:29:28;12.55;;;3.35;;
35074;SDS011;21260;34.984;32.490;2023-05-07T01:31:58;11.77;;;3.33;;
35074;SDS011;21260;34.984;32.490;2023-05-07T01:34:28;9.40;;;3.40;;
35074;SDS011;21260;34.984;32.490;2023-05-07T01:36:59;8.52;;;3.30;;
35074;SDS011;21260;34.984;32.490;2023-05-07T01:39:27;11.93;;;3.40;;
35074;SDS011;21260;34.984;32.490;2023-05-07T01:41:55;11.43;;;3.03;;
35074;SDS011;21260;34.984;32.490;2023-05-07T01:44:22;9.73;;;3.33;;
35074;SDS011;21260;34.984;32.490;2023-05-07T01:46:49;10.45;;;3.33;;
35074;SDS011;21260;34.984;32.490;2023-05-07T01:49:16;9.85;;;3.00;;
35074;SDS011;21260;34.984;32.490;2023-05-07T01:51:43;8.75;;;3.05;;
35074;SDS011;21260;34.984;32.490;2023-05-07T01:54:10;10.30;;;3.15;;
35074;SDS011;21260;34.984;32.490;2023-05-07T01:56:36;9.30;;;3.20;;
35074;SDS011;21260;34.984;32.490;2023-05-07T01:59:02;11.25;;;3.22;;
35074;SDS011;21260;34.984;32.490;2023-05-07T02:01:28;9.13;;;3.20;;
35074;SDS011;21260;34.984;32.490;2023-05-07T02:03:55;11.00;;;3.25;;
35074;SDS011;21260;34.984;32.490;2023-05-07T02:06:21;9.60;;;3.28;;
35074;SDS011;21260;34.984;32.490;2023-05-07T02:08:47;10.35;;;3.00;;
35074;SDS011;21260;34.984;32.490;2023-05-07T02:11:13;10.25;;;3.20;;
35074;SDS011;21260;34.984;32.490;2023-05-07T02:13:40;8.20;;;2.97;;
35074;SDS011;21260;34.984;32.490;2023-05-07T02:16:06;11.73;;;3.35;;
35074;SDS011;21260;34.984;32.490;2023-05-07T02:18:33;9.65;;;3.13;;
35074;SDS011;21260;34.984;32.490;2023-05-07T02:21:00;12.60;;;3.40;;
35074;SDS011;21260;34.984;32.490;2023-05-07T02:23:26;11.07;;;3.20;;
35074;SDS011;21260;34.984;32.490;2023-05-07T02:25:52;10.27;;;3.30;;
35074;SDS011;21260;34.984;32.490;2023-05-07T02:28:19;7.38;;;2.95;;
35074;SDS011;21260;34.984;32.490;2023-05-07T02:30:45;8.43;;;2.97;;
35074;SDS011;21260;34.984;32.490;2023-05-07T02:33:11;8.75;;;3.13;;
35074;SDS011;21260;34.984;32.490;2023-05-07T02:35:38;8.73;;;3.22;;
35074;SDS011;21260;34.984;32.490;2023-05-07T02:38:05;9.18;;;2.97;;
35074;SDS011;21260;34.984;32.490;2023-05-07T02:40:31;12.98;;;3.22;;
35074;SDS011;21260;34.984;32.490;2023-05-07T02:43:03;10.07;;;3.38;;
35074;SDS011;21260;34.984;32.490;2023-05-07T02:45:31;8.43;;;3.17;;
35074;SDS011;21260;34.984;32.490;2023-05-07T02:47:58;11.48;;;3.28;;
35074;SDS011;21260;34.984;32.490;2023-05-07T02:50:24;7.38;;;2.67;;
35074;SDS011;21260;34.984;32.490;2023-05-07T02:52:52;9.50;;;3.40;;
35074;SDS011;21260;34.984;32.490;2023-05-07T02:55:18;12.15;;;3.40;;
35074;SDS011;21260;34.984;32.490;2023-05-07T02:57:44;13.20;;;3.20;;
35074;SDS011;21260;34.984;32.490;2023-05-07T03:00:14;9.68;;;3.30;;
35074;SDS011;21260;34.984;32.490;2023-05-07T03:02:44;8.05;;;3.10;;
35074;SDS011;21260;34.984;32.490;2023-05-07T03:05:11;9.60;;;3.22;;
35074;SDS011;21260;34.984;32.490;2023-05-07T03:07:37;9.13;;;3.17;;
35074;SDS011;21260;34.984;32.490;2023-05-07T03:10:04;11.75;;;3.28;;
35074;SDS011;21260;34.984;32.490;2023-05-07T03:12:31;10.45;;;3.08;;
35074;SDS011;21260;34.984;32.490;2023-05-07T03:14:57;11.93;;;3.53;;
35074;SDS011;21260;34.984;32.490;2023-05-07T03:17:24;11.13;;;3.25;;
35074;SDS011;21260;34.984;32.490;2023-05-07T03:19:50;12.48;;;3.70;;
35074;SDS011;21260;34.984;32.490;2023-05-07T03:22:16;11.13;;;3.38;;
35074;SDS011;21260;34.984;32.490;2023-05-07T03:24:43;11.63;;;3.58;;
35074;SDS011;21260;34.984;32.490;2023-05-07T03:27:09;9.30;;;3.10;;
35074;SDS011;21260;34.984;32.490;2023-05-07T03:29:35;11.85;;;3.55;;
35074;SDS011;21260;34.984;32.490;2023-05-07T03:32:01;7.55;;;2.90;;
35074;SDS011;21260;34.984;32.490;2023-05-07T03:34:27;9.98;;;3.10;;
35074;SDS011;21260;34.984;32.490;2023-05-07T03:36:53;9.98;;;3.20;;
35074;SDS011;21260;34.984;32.490;2023-05-07T03:39:20;9.80;;;3.30;;
35074;SDS011;21260;34.984;32.490;2023-05-07T03:41:47;10.60;;;3.10;;
35074;SDS011;21260;34.984;32.490;2023-05-07T03:44:13;9.63;;;2.90;;
35074;SDS011;21260;34.984;32.490;2023-05-07T03:46:39;9.45;;;3.10;;
35074;SDS011;21260;34.984;32.490;2023-05-07T03:49:05;7.35;;;2.90;;
35074;SDS011;21260;34.984;32.490;2023-05-07T03:51:32;9.95;;;3.17;;
35074;SDS011;21260;34.984;32.490;2023-05-07T03:53:58;8.88;;;3.15;;
35074;SDS011;21260;34.984;32.490;2023-05-07T03:56:24;12.10;;;3.30;;
35074;SDS011;21260;34.984;32.490;2023-05-07T03:58:52;8.65;;;2.90;;
35074;SDS011;21260;34.984;32.490;2023-05-07T04:01:19;11.80;;;3.10;;
35074;SDS011;21260;34.984;32.490;2023-05-07T04:03:45;11.88;;;3.53;;
35074;SDS011;21260;34.984;32.490;2023-05-07T04:06:11;10.27;;;3.40;;
35074;SDS011;21260;34.984;32.490;2023-05-07T04:08:38;9.77;;;3.00;;
35074;SDS011;21260;34.984;32.490;2023-05-07T04:11:04;10.00;;;3.22;;
35074;SDS011;21260;34.984;32.490;2023-05-07T04:13:31;8.73;;;2.80;;
35074;SDS011;21260;34.984;32.490;2023-05-07T04:15:57;10.40;;;3.00;;
35074;SDS011;21260;34.984;32.490;2023-05-07T04:18:23;11.75;;;3.10;;
35074;SDS011;21260;34.984;32.490;2023-05-07T04:20:49;11.25;;;2.95;;
35074;SDS011;21260;34.984;32.490;2023-05-07T04:23:16;12.97;;;3.23;;
35074;SDS011;21260;34.984;32.490;2023-05-07T04:25:42;11.80;;;3.13;;
35074;SDS011;21260;34.984;32.490;2023-05-07T04:28:08;9.18;;;2.85;;
35074;SDS011;21260;34.984;32.490;2023-05-07T04:30:34;10.10;;;3.00;;
35074;SDS011;21260;34.984;32.490;2023-05-07T04:33:01;7.53;;;2.78;;
35074;SDS011;21260;34.984;32.490;2023-05-07T04:35:27;8.32;;;2.88;;
35074;SDS011;21260;34.984;32.490;2023-05-07T04:37:53;9.45;;;2.83;;
35074;SDS011;21260;34.984;32.490;2023-05-07T04:40:20;7.90;;;2.75;;
35074;SDS011;21260;34.984;32.490;2023-05-07T04:42:46;11.02;;;2.95;;
35074;SDS011;21260;34.984;32.490;2023-05-07T04:45:12;10.32;;;3.00;;
35074;SDS011;21260;34.984;32.490;2023-05-07T04:47:38;8.77;;;2.90;;
35074;SDS011;21260;34.984;32.490;2023-05-07T04:50:05;9.88;;;2.90;;
35074;SDS011;21260;34.984;32.490;2023-05-07T04:52:33;7.43;;;2.67;;
35074;SDS011;21260;34.984;32.490;2023-05-07T04:54:59;7.90;;;2.53;;
35074;SDS011;21260;34.984;32.490;2023-05-07T04:57:26;9.48;;;2.72;;
35074;SDS011;21260;34.984;32.490;2023-05-07T04:59:56;9.18;;;2.78;;
35074;SDS011;21260;34.984;32.490;2023-05-07T05:02:23;6.93;;;2.40;;
35074;SDS011;21260;34.984;32.490;2023-05-07T05:04:49;7.00;;;2.67;;
35074;SDS011;21260;34.984;32.490;2023-05-07T05:07:15;8.25;;;2.80;;
35074;SDS011;21260;34.984;32.490;2023-05-07T05:09:42;8.45;;;2.70;;
35074;SDS011;21260;34.984;32.490;2023-05-07T05:12:08;9.20;;;2.90;;
35074;SDS011;21260;34.984;32.490;2023-05-07T05:14:34;8.30;;;2.90;;
35074;SDS011;21260;34.984;32.490;2023-05-07T05:17:00;10.18;;;3.00;;
35074;SDS011;21260;34.984;32.490;2023-05-07T05:19:26;8.82;;;2.70;;
35074;SDS011;21260;34.984;32.490;2023-05-07T05:21:53;8.07;;;2.60;;
35074;SDS011;21260;34.984;32.490;2023-05-07T05:24:19;8.27;;;2.50;;
35074;SDS011;21260;34.984;32.490;2023-05-07T05:26:45;8.97;;;2.90;;
35074;SDS011;21260;34.984;32.490;2023-05-07T05:29:11;8.38;;;2.67;;
35074;SDS011;21260;34.984;32.490;2023-05-07T05:31:37;9.32;;;2.53;;
35074;SDS011;21260;34.984;32.490;2023-05-07T05:34:03;6.85;;;2.60;;
35074;SDS011;21260;34.984;32.490;2023-05-07T05:36:30;6.45;;;2.63;;
35074;SDS011;21260;34.984;32.490;2023-05-07T05:38:56;6.00;;;2.33;;
35074;SDS011;21260;34.984;32.490;2023-05-07T05:41:22;7.88;;;2.10;;
35074;SDS011;21260;34.984;32.490;2023-05-07T05:43:48;7.70;;;2.10;;
35074;SDS011;21260;34.984;32.490;2023-05-07T05:46:15;6.22;;;2.15;;
35074;SDS011;21260;34.984;32.490;2023-05-07T05:48:41;7.55;;;2.05;;
35074;SDS011;21260;34.984;32.490;2023-05-07T05:51:07;8.52;;;2.20;;
35074;SDS011;21260;34.984;32.490;2023-05-07T05:53:33;5.68;;;2.10;;
35074;SDS011;21260;34.984;32.490;2023-05-07T05:56:00;4.47;;;1.92;;
35074;SDS011;21260;34.984;32.490;2023-05-07T05:58:26;7.53;;;2.37;;
35074;SDS011;21260;34.984;32.490;2023-05-07T06:00:52;5.38;;;1.98;;
35074;SDS011;21260;34.984;32.490;2023-05-07T06:03:19;5.28;;;2.10;;
35074;SDS011;21260;34.984;32.490;2023-05-07T06:05:45;5.53;;;2.00;;
35074;SDS011;21260;34.984;32.490;2023-05-07T06:08:12;6.50;;;1.98;;
35074;SDS011;21260;34.984;32.490;2023-05-07T06:10:38;8.25;;;2.33;;
35074;SDS011;21260;34.984;32.490;2023-05-07T06:13:05;6.47;;;2.50;;
35074;SDS011;21260;34.984;32.490;2023-05-07T06:15:31;4.63;;;1.80;;
35074;SDS011;21260;34.984;32.490;2023-05-07T06:17:57;3.58;;;1.50;;
35074;SDS011;21260;34.984;32.490;2023-05-07T06:20:24;6.55;;;1.90;;
35074;SDS011;21260;34.984;32.490;2023-05-07T06:22:50;6.60;;;2.20;;
35074;SDS011;21260;34.984;32.490;2023-05-07T06:25:17;4.97;;;2.10;;
35074;SDS011;21260;34.984;32.490;2023-05-07T06:27:44;5.47;;;2.05;;
35074;SDS011;21260;34.984;32.490;2023-05-07T06:30:10;4.65;;;1.70;;
35074;SDS011;21260;34.984;32.490;2023-05-07T06:32:37;5.95;;;2.08;;
35074;SDS011;21260;34.984;32.490;2023-05-07T06:35:05;6.20;;;2.00;;
35074;SDS011;21260;34.984;32.490;2023-05-07T06:37:32;5.15;;;2.08;;
35074;SDS011;21260;34.984;32.490;2023-05-07T06:39:58;5.32;;;1.92;;
35074;SDS011;21260;34.984;32.490;2023-05-07T06:42:24;7.77;;;2.30;;
35074;SDS011;21260;34.984;32.490;2023-05-07T06:44:51;6.47;;;2.13;;
35074;SDS011;21260;34.984;32.490;2023-05-07T06:47:17;5.60;;;1.97;;
35074;SDS011;21260;34.984;32.490;2023-05-07T06:49:43;8.50;;;2.15;;
35074;SDS011;21260;34.984;32.490;2023-05-07T06:52:10;6.15;;;1.80;;
35074;SDS011;21260;34.984;32.490;2023-05-07T06:54:36;5.97;;;1.98;;
35074;SDS011;21260;34.984;32.490;2023-05-07T06:57:02;5.70;;;1.95;;
35074;SDS011;21260;34.984;32.490;2023-05-07T06:59:28;6.47;;;1.90;;
35074;SDS011;21260;34.984;32.490;2023-05-07T07:01:55;6.32;;;2.15;;
35074;SDS011;21260;34.984;32.490;2023-05-07T07:04:21;5.97;;;1.83;;
35074;SDS011;21260;34.984;32.490;2023-05-07T07:06:48;7.00;;;2.25;;
35074;SDS011;21260;34.984;32.490;2023-05-07T07:09:17;6.43;;;2.03;;
35074;SDS011;21260;34.984;32.490;2023-05-07T07:11:44;8.07;;;2.13;;
35074;SDS011;21260;34.984;32.490;2023-05-07T07:14:10;5.03;;;1.80;;
35074;SDS011;21260;34.984;32.490;2023-05-07T07:16:38;4.80;;;1.70;;
35074;SDS011;21260;34.984;32.490;2023-05-07T07:19:04;5.07;;;1.90;;
35074;SDS011;21260;34.984;32.490;2023-05-07T07:21:30;7.47;;;1.93;;
35074;SDS011;21260;34.984;32.490;2023-05-07T07:23:57;2.77;;;1.60;;
35074;SDS011;21260;34.984;32.490;2023-05-07T07:26:23;4.80;;;1.93;;
35074;SDS011;21260;34.984;32.490;2023-05-07T07:28:49;7.60;;;2.23;;
35074;SDS011;21260;34.984;32.490;2023-05-07T07:31:15;8.20;;;2.23;;
35074;SDS011;21260;34.984;32.490;2023-05-07T07:33:42;7.73;;;2.50;;
35074;SDS011;21260;34.984;32.490;2023-05-07T07:36:09;8.87;;;2.57;;
35074;SDS011;21260;34.984;32.490;2023-05-07T07:38:35;8.47;;;2.10;;
35074;SDS011;21260;34.984;32.490;2023-05-07T07:41:01;9.27;;;2.37;;
35074;SDS011;21260;34.984;32.490;2023-05-07T07:43:28;7.77;;;2.07;;
35074;SDS011;21260;34.984;32.490;2023-05-07T07:45:54;7.27;;;1.93;;
35074;SDS011;21260;34.984;32.490;2023-05-07T07:48:20;8.13;;;2.53;;
35074;SDS011;21260;34.984;32.490;2023-05-07T07:50:50;5.83;;;2.33;;
35074;SDS011;21260;34.984;32.490;2023-05-07T07:53:16;7.57;;;2.20;;
35074;SDS011;21260;34.984;32.490;2023-05-07T07:55:43;5.93;;;1.90;;
35074;SDS011;21260;34.984;32.490;2023-05-07T07:58:09;5.73;;;1.97;;
35074;SDS011;21260;34.984;32.490;2023-05-07T08:00:36;7.53;;;2.10;;
35074;SDS011;21260;34.984;32.490;2023-05-07T08:03:02;7.40;;;2.30;;
35074;SDS011;21260;34.984;32.490;2023-05-07T08:05:28;4.90;;;2.00;;
35074;SDS011;21260;34.984;32.490;2023-05-07T08:07:55;6.43;;;2.33;;
35074;SDS011;21260;34.984;32.490;2023-05-07T08:10:21;8.83;;;2.53;;
35074;SDS011;21260;34.984;32.490;2023-05-07T08:12:48;7.13;;;2.20;;
35074;SDS011;21260;34.984;32.490;2023-05-07T08:15:15;5.60;;;2.50;;
35074;SDS011;21260;34.984;32.490;2023-05-07T08:17:43;4.73;;;2.00;;
35074;SDS011;21260;34.984;32.490;2023-05-07T08:20:12;5.17;;;2.27;;
35074;SDS011;21260;34.984;32.490;2023-05-07T08:22:39;11.40;;;2.67;;
35074;SDS011;21260;34.984;32.490;2023-05-07T08:25:05;8.33;;;2.50;;
35074;SDS011;21260;34.984;32.490;2023-05-07T08:27:33;5.90;;;2.10;;
35074;SDS011;21260;34.984;32.490;2023-05-07T08:29:59;6.40;;;2.00;;
35074;SDS011;21260;34.984;32.490;2023-05-07T08:32:25;7.70;;;2.10;;
35074;SDS011;21260;34.984;32.490;2023-05-07T08:34:53;6.83;;;2.33;;
35074;SDS011;21260;34.984;32.490;2023-05-07T08:37:20;6.67;;;2.47;;
35074;SDS011;21260;34.984;32.490;2023-05-07T08:39:46;7.13;;;2.50;;
35074;SDS011;21260;34.984;32.490;2023-05-07T08:42:12;7.00;;;2.00;;
35074;SDS011;21260;34.984;32.490;2023-05-07T08:44:41;6.70;;;2.20;;
35074;SDS011;21260;34.984;32.490;2023-05-07T08:47:14;10.27;;;2.43;;
35074;SDS011;21260;34.984;32.490;2023-05-07T08:49:42;5.23;;;2.20;;
35074;SDS011;21260;34.984;32.490;2023-05-07T08:52:08;7.40;;;2.27;;
35074;SDS011;21260;34.984;32.490;2023-05-07T08:54:36;8.23;;;2.47;;
35074;SDS011;21260;34.984;32.490;2023-05-07T08:57:03;6.10;;;2.53;;
35074;SDS011;21260;34.984;32.490;2023-05-07T08:59:30;8.07;;;2.50;;
35074;SDS011;21260;34.984;32.490;2023-05-07T09:01:56;8.97;;;2.50;;
35074;SDS011;21260;34.984;32.490;2023-05-07T09:04:22;8.93;;;2.20;;
35074;SDS011;21260;34.984;32.490;2023-05-07T09:06:49;8.27;;;2.70;;
35074;SDS011;21260;34.984;32.490;2023-05-07T09:09:16;5.90;;;2.33;;
35074;SDS011;21260;34.984;32.490;2023-05-07T09:11:45;7.83;;;2.40;;
35074;SDS011;21260;34.984;32.490;2023-05-07T09:14:12;5.73;;;2.03;;
35074;SDS011;21260;34.984;32.490;2023-05-07T09:16:38;6.53;;;2.20;;
35074;SDS011;21260;34.984;32.490;2023-05-07T09:19:05;6.43;;;2.40;;
35074;SDS011;21260;34.984;32.490;2023-05-07T09:21:31;6.37;;;2.50;;
35074;SDS011;21260;34.984;32.490;2023-05-07T09:23:57;6.17;;;2.20;;
35074;SDS011;21260;34.984;32.490;2023-05-07T09:26:24;8.00;;;2.20;;
35074;SDS011;21260;34.984;32.490;2023-05-07T09:28:52;9.27;;;2.77;;
35074;SDS011;21260;34.984;32.490;2023-05-07T09:31:19;5.70;;;2.03;;
35074;SDS011;21260;34.984;32.490;2023-05-07T09:33:48;6.40;;;2.07;;
35074;SDS011;21260;34.984;32.490;2023-05-07T09:36:14;7.83;;;2.53;;
35074;SDS011;21260;34.984;32.490;2023-05-07T09:38:41;7.50;;;2.90;;
35074;SDS011;21260;34.984;32.490;2023-05-07T09:41:08;8.60;;;2.40;;
35074;SDS011;21260;34.984;32.490;2023-05-07T09:43:39;5.80;;;1.97;;
35074;SDS011;21260;34.984;32.490;2023-05-07T09:46:07;5.80;;;2.07;;
35074;SDS011;21260;34.984;32.490;2023-05-07T09:48:45;8.00;;;2.57;;
35074;SDS011;21260;34.984;32.490;2023-05-07T09:54:06;7.47;;;1.97;;
35074;SDS011;21260;34.984;32.490;2023-05-07T09:56:33;8.23;;;2.20;;
35074;SDS011;21260;34.984;32.490;2023-05-07T09:59:02;7.77;;;2.10;;
35074;SDS011;21260;34.984;32.490;2023-05-07T10:01:32;7.30;;;2.20;;
35074;SDS011;21260;34.984;32.490;2023-05-07T10:04:02;10.47;;;2.63;;
35074;SDS011;21260;34.984;32.490;2023-05-07T10:06:29;9.73;;;2.90;;
35074;SDS011;21260;34.984;32.490;2023-05-07T10:08:56;8.83;;;2.63;;
35074;SDS011;21260;34.984;32.490;2023-05-07T10:11:24;9.87;;;2.87;;
35074;SDS011;21260;34.984;32.490;2023-05-07T10:13:50;7.67;;;2.30;;
35074;SDS011;21260;34.984;32.490;2023-05-07T10:16:19;6.20;;;2.33;;
35074;SDS011;21260;34.984;32.490;2023-05-07T10:21:55;5.37;;;2.63;;
35074;SDS011;21260;34.984;32.490;2023-05-07T10:24:31;10.60;;;2.93;;
35074;SDS011;21260;34.984;32.490;2023-05-07T10:27:01;8.30;;;3.00;;
35074;SDS011;21260;34.984;32.490;2023-05-07T10:29:45;11.80;;;3.30;;
35074;SDS011;21260;34.984;32.490;2023-05-07T10:35:02;7.23;;;2.90;;
35074;SDS011;21260;34.984;32.490;2023-05-07T10:37:35;8.97;;;3.13;;
35074;SDS011;21260;34.984;32.490;2023-05-07T10:40:02;7.20;;;3.07;;
35074;SDS011;21260;34.984;32.490;2023-05-07T10:42:32;8.70;;;3.70;;
35074;SDS011;21260;34.984;32.490;2023-05-07T10:45:11;10.57;;;3.33;;
35074;SDS011;21260;34.984;32.490;2023-05-07T10:50:38;10.57;;;3.57;;
35074;SDS011;21260;34.984;32.490;2023-05-07T10:55:42;6.17;;;3.00;;
35074;SDS011;21260;34.984;32.490;2023-05-07T10:58:29;12.53;;;3.73;;
35074;SDS011;21260;34.984;32.490;2023-05-07T11:01:01;10.37;;;3.83;;
35074;SDS011;21260;34.984;32.490;2023-05-07T11:03:28;9.93;;;3.33;;
35074;SDS011;21260;34.984;32.490;2023-05-07T11:11:17;7.70;;;3.20;;
35074;SDS011;21260;34.984;32.490;2023-05-07T11:13:45;10.70;;;3.40;;
35074;SDS011;21260;34.984;32.490;2023-05-07T11:16:17;7.87;;;3.37;;
35074;SDS011;21260;34.984;32.490;2023-05-07T11:18:49;10.40;;;3.00;;
35074;SDS011;21260;34.984;32.490;2023-05-07T11:21:40;9.57;;;3.60;;
35074;SDS011;21260;34.984;32.490;2023-05-07T11:24:08;9.00;;;3.03;;
35074;SDS011;21260;34.984;32.490;2023-05-07T11:26:45;6.67;;;2.90;;
35074;SDS011;21260;34.984;32.490;2023-05-07T11:29:15;8.10;;;3.03;;
35074;SDS011;21260;34.984;32.490;2023-05-07T11:31:53;9.77;;;3.43;;
35074;SDS011;21260;34.984;32.490;2023-05-07T11:34:24;9.07;;;3.53;;
35074;SDS011;21260;34.984;32.490;2023-05-07T11:36:51;7.60;;;2.90;;
35074;SDS011;21260;34.984;32.490;2023-05-07T11:39:31;10.10;;;3.13;;
35074;SDS011;21260;34.984;32.490;2023-05-07T11:42:01;9.50;;;3.23;;
35074;SDS011;21260;34.984;32.490;2023-05-07T11:44:41;7.63;;;3.10;;
35074;SDS011;21260;34.984;32.490;2023-05-07T11:47:11;5.23;;;3.00;;
35074;SDS011;21260;34.984;32.490;2023-05-07T11:49:43;8.07;;;3.50;;
35074;SDS011;21260;34.984;32.490;2023-05-07T11:52:16;9.57;;;3.33;;
35074;SDS011;21260;34.984;32.490;2023-05-07T11:54:55;8.83;;;3.17;;
35074;SDS011;21260;34.984;32.490;2023-05-07T11:57:24;7.83;;;3.33;;
35074;SDS011;21260;34.984;32.490;2023-05-07T11:59:55;11.33;;;3.10;;
35074;SDS011;21260;34.984;32.490;2023-05-07T12:02:23;13.57;;;3.40;;
35074;SDS011;21260;34.984;32.490;2023-05-07T12:04:51;11.53;;;3.10;;
35074;SDS011;21260;34.984;32.490;2023-05-07T12:07:17;7.67;;;3.20;;
35074;SDS011;21260;34.984;32.490;2023-05-07T12:09:44;9.50;;;2.80;;
35074;SDS011;21260;34.984;32.490;2023-05-07T12:12:12;9.00;;;4.20;;
35074;SDS011;21260;34.984;32.490;2023-05-07T12:14:43;6.87;;;2.80;;
35074;SDS011;21260;34.984;32.490;2023-05-07T12:17:11;8.23;;;3.33;;
35074;SDS011;21260;34.984;32.490;2023-05-07T12:19:40;9.83;;;3.20;;
35074;SDS011;21260;34.984;32.490;2023-05-07T12:22:08;11.10;;;3.60;;
35074;SDS011;21260;34.984;32.490;2023-05-07T12:25:08;9.87;;;3.10;;
35074;SDS011;21260;34.984;32.490;2023-05-07T12:27:28;8.80;;;3.73;;
35074;SDS011;21260;34.984;32.490;2023-05-07T12:29:56;8.10;;;3.20;;
35074;SDS011;21260;34.984;32.490;2023-05-07T12:32:25;7.03;;;3.30;;
35074;SDS011;21260;34.984;32.490;2023-05-07T12:34:51;9.40;;;3.10;;
35074;SDS011;21260;34.984;32.490;2023-05-07T12:37:22;7.07;;;2.90;;
35074;SDS011;21260;34.984;32.490;2023-05-07T12:40:07;5.57;;;2.70;;
35074;SDS011;21260;34.984;32.490;2023-05-07T12:42:35;6.13;;;2.87;;
35074;SDS011;21260;34.984;32.490;2023-05-07T12:45:08;7.17;;;2.60;;
35074;SDS011;21260;34.984;32.490;2023-05-07T12:47:43;8.33;;;2.90;;
35074;SDS011;21260;34.984;32.490;2023-05-07T12:50:11;9.53;;;3.27;;
35074;SDS011;21260;34.984;32.490;2023-05-07T12:52:42;11.40;;;3.20;;
35074;SDS011;21260;34.984;32.490;2023-05-07T12:55:15;9.03;;;3.40;;
35074;SDS011;21260;34.984;32.490;2023-05-07T12:57:43;8.73;;;3.50;;
35074;SDS011;21260;34.984;32.490;2023-05-07T13:00:15;4.67;;;2.70;;
35074;SDS011;21260;34.984;32.490;2023-05-07T13:02:43;9.27;;;3.33;;
35074;SDS011;21260;34.984;32.490;2023-05-07T13:05:10;10.37;;;2.97;;
35074;SDS011;21260;34.984;32.490;2023-05-07T13:07:38;7.20;;;2.60;;
35074;SDS011;21260;34.984;32.490;2023-05-07T13:10:05;13.63;;;3.23;;
35074;SDS011;21260;34.984;32.490;2023-05-07T13:12:32;7.23;;;3.03;;
35074;SDS011;21260;34.984;32.490;2023-05-07T13:14:59;8.13;;;3.30;;
35074;SDS011;21260;34.984;32.490;2023-05-07T13:17:25;5.37;;;3.13;;
35074;SDS011;21260;34.984;32.490;2023-05-07T13:19:52;11.33;;;3.73;;
35074;SDS011;21260;34.984;32.490;2023-05-07T13:22:18;6.53;;;3.20;;
35074;SDS011;21260;34.984;32.490;2023-05-07T13:24:44;12.23;;;4.40;;
35074;SDS011;21260;34.984;32.490;2023-05-07T13:27:11;9.93;;;3.67;;
35074;SDS011;21260;34.984;32.490;2023-05-07T13:29:37;7.70;;;3.43;;
35074;SDS011;21260;34.984;32.490;2023-05-07T13:32:03;11.10;;;3.23;;
35074;SDS011;21260;34.984;32.490;2023-05-07T13:34:30;9.80;;;3.37;;
35074;SDS011;21260;34.984;32.490;2023-05-07T13:36:56;10.67;;;3.73;;
35074;SDS011;21260;34.984;32.490;2023-05-07T13:39:22;9.83;;;3.27;;
35074;SDS011;21260;34.984;32.490;2023-05-07T13:41:48;9.67;;;3.77;;
35074;SDS011;21260;34.984;32.490;2023-05-07T13:44:15;10.53;;;3.87;;
35074;SDS011;21260;34.984;32.490;2023-05-07T13:46:41;12.67;;;4.00;;
35074;SDS011;21260;34.984;32.490;2023-05-07T13:49:07;11.63;;;4.27;;
35074;SDS011;21260;34.984;32.490;2023-05-07T13:51:36;7.97;;;3.80;;
35074;SDS011;21260;34.984;32.490;2023-05-07T13:54:02;10.20;;;3.57;;
35074;SDS011;21260;34.984;32.490;2023-05-07T13:56:29;7.93;;;3.60;;
35074;SDS011;21260;34.984;32.490;2023-05-07T13:58:57;10.73;;;3.70;;
35074;SDS011;21260;34.984;32.490;2023-05-07T14:01:24;8.17;;;3.70;;
35074;SDS011;21260;34.984;32.490;2023-05-07T14:03:50;13.13;;;4.20;;
35074;SDS011;21260;34.984;32.490;2023-05-07T14:06:16;16.53;;;4.10;;
35074;SDS011;21260;34.984;32.490;2023-05-07T14:08:43;19.10;;;4.40;;
35074;SDS011;21260;34.984;32.490;2023-05-07T14:11:09;10.97;;;3.57;;
35074;SDS011;21260;34.984;32.490;2023-05-07T14:13:35;10.43;;;4.40;;
35074;SDS011;21260;34.984;32.490;2023-05-07T14:16:03;10.40;;;4.00;;
35074;SDS011;21260;34.984;32.490;2023-05-07T14:18:30;18.03;;;4.13;;
35074;SDS011;21260;34.984;32.490;2023-05-07T14:20:58;11.27;;;4.07;;
35074;SDS011;21260;34.984;32.490;2023-05-07T14:23:25;13.87;;;4.20;;
35074;SDS011;21260;34.984;32.490;2023-05-07T14:25:53;10.37;;;4.17;;
35074;SDS011;21260;34.984;32.490;2023-05-07T14:28:19;8.40;;;3.83;;
35074;SDS011;21260;34.984;32.490;2023-05-07T14:30:46;8.23;;;4.30;;
35074;SDS011;21260;34.984;32.490;2023-05-07T14:33:12;11.10;;;4.47;;
35074;SDS011;21260;34.984;32.490;2023-05-07T14:35:39;8.50;;;3.87;;
35074;SDS011;21260;34.984;32.490;2023-05-07T14:38:06;8.30;;;4.03;;
35074;SDS011;21260;34.984;32.490;2023-05-07T14:40:32;9.50;;;4.27;;
35074;SDS011;21260;34.984;32.490;2023-05-07T14:42:58;8.17;;;4.20;;
35074;SDS011;21260;34.984;32.490;2023-05-07T14:45:25;11.83;;;4.37;;
35074;SDS011;21260;34.984;32.490;2023-05-07T14:47:51;11.70;;;4.63;;
35074;SDS011;21260;34.984;32.490;2023-05-07T14:50:17;8.57;;;3.80;;
35074;SDS011;21260;34.984;32.490;2023-05-07T14:52:44;9.70;;;4.03;;